Time;durP1;ratioP1;P1;durP2;ratioP2;P2;SDS_P1;SDS_P2;PMS_P1;PMS_P2;Temp;Humidity;BMP_temperature;BMP_pressure;BME280_temperature;BME280_humidity;BME280_pressure;Samples;Min_cycle;Max_cycle;Signal;HPM_P1;HPM_P2
2023/04/11 00:00:24;;;;;;;7.50;5.60;;;;;;;;;;5017353;28;20521;-61
2023/04/11 00:02:50;;;;;;;7.20;5.55;;;;;;;;;;5024779;28;20604;-61
2023/04/11 00:05:16;;;;;;;6.28;5.35;;;;;;;;;;5020607;28;20120;-61
2023/04/11 00:07:41;;;;;;;7.40;6.17;;;;;;;;;;5023367;28;20226;-61
2023/04/11 00:10:07;;;;;;;7.20;5.80;;;;;;;;;;5020391;28;20307;-61
2023/04/11 00:12:32;;;;;;;7.40;5.45;;;;;;;;;;5024383;28;20341;-61
2023/04/11 00:14:57;;;;;;;7.17;5.73;;;;;;;;;;5020916;28;20046;-61
2023/04/11 00:17:22;;;;;;;7.43;5.50;;;;;;;;;;5016775;28;20292;-60
2023/04/11 00:19:48;;;;;;;7.60;5.70;;;;;;;;;;5022418;28;20287;-61
2023/04/11 00:22:16;;;;;;;6.82;5.90;;;;;;;;;;5020361;28;21086;-60
2023/04/11 00:24:41;;;;;;;7.30;5.18;;;;;;;;;;5023696;28;20025;-61
2023/04/11 00:27:07;;;;;;;6.80;5.70;;;;;;;;;;5021165;28;20052;-60
2023/04/11 00:29:33;;;;;;;6.83;5.57;;;;;;;;;;5020273;28;20053;-61
2023/04/11 00:31:58;;;;;;;6.57;5.20;;;;;;;;;;5022747;28;20314;-62
2023/04/11 00:34:23;;;;;;;6.57;5.25;;;;;;;;;;5019237;28;20042;-61
2023/04/11 00:36:49;;;;;;;6.33;5.13;;;;;;;;;;5021415;28;20036;-61
2023/04/11 00:39:17;;;;;;;8.73;5.78;;;;;;;;;;5023206;28;20272;-60
2023/04/11 00:41:42;;;;;;;6.65;5.07;;;;;;;;;;5039591;28;20128;-61
2023/04/11 00:44:08;;;;;;;6.20;5.00;;;;;;;;;;5025744;28;20128;-61
2023/04/11 00:46:35;;;;;;;6.90;4.95;;;;;;;;;;5008707;28;20048;-60
2023/04/11 00:49:00;;;;;;;6.30;5.18;;;;;;;;;;5025406;28;20079;-60
2023/04/11 00:51:25;;;;;;;7.37;5.40;;;;;;;;;;5019415;28;20116;-61
2023/04/11 00:53:50;;;;;;;6.40;5.30;;;;;;;;;;5024602;28;21164;-62
2023/04/11 00:56:16;;;;;;;7.22;5.63;;;;;;;;;;5009247;28;20119;-62
2023/04/11 00:58:41;;;;;;;6.67;5.10;;;;;;;;;;5023154;28;20123;-61
2023/04/11 01:01:09;;;;;;;6.05;4.88;;;;;;;;;;5018401;28;20391;-59
2023/04/11 01:03:37;;;;;;;6.57;5.25;;;;;;;;;;5020094;28;20116;-60
2023/04/11 01:06:09;;;;;;;6.38;5.25;;;;;;;;;;5013892;28;20511;-59
2023/04/11 01:08:34;;;;;;;6.35;4.97;;;;;;;;;;5014279;28;20045;-60
2023/04/11 01:11:00;;;;;;;6.40;5.00;;;;;;;;;;5029488;28;20494;-60
2023/04/11 01:13:25;;;;;;;6.00;5.13;;;;;;;;;;5024089;28;20515;-61
2023/04/11 01:15:50;;;;;;;6.15;5.03;;;;;;;;;;5019424;28;20601;-60
2023/04/11 01:18:15;;;;;;;5.57;4.93;;;;;;;;;;5022112;28;20042;-62
2023/04/11 01:20:41;;;;;;;6.73;5.03;;;;;;;;;;5024692;28;20083;-61
2023/04/11 01:23:07;;;;;;;5.60;4.57;;;;;;;;;;5024433;28;20354;-60
2023/04/11 01:25:32;;;;;;;5.95;4.80;;;;;;;;;;5023155;28;20072;-60
2023/04/11 01:27:57;;;;;;;6.17;5.03;;;;;;;;;;5024735;28;20037;-60
2023/04/11 01:30:23;;;;;;;5.90;4.80;;;;;;;;;;5023983;28;20094;-60
2023/04/11 01:32:49;;;;;;;5.93;4.78;;;;;;;;;;5023406;28;20287;-60
2023/04/11 01:35:14;;;;;;;5.90;4.60;;;;;;;;;;5020865;28;20065;-60
2023/04/11 01:37:39;;;;;;;6.37;5.10;;;;;;;;;;5022083;28;20480;-61
2023/04/11 01:40:06;;;;;;;5.83;4.80;;;;;;;;;;5024621;28;20544;-61
2023/04/11 01:42:31;;;;;;;5.70;5.05;;;;;;;;;;5024551;28;20664;-61
2023/04/11 01:44:56;;;;;;;5.63;4.43;;;;;;;;;;5023277;28;20044;-62
2023/04/11 01:47:22;;;;;;;5.83;4.60;;;;;;;;;;5005926;28;20045;-61
2023/04/11 01:49:47;;;;;;;6.05;4.68;;;;;;;;;;5031254;28;20403;-60
2023/04/11 01:52:12;;;;;;;5.80;4.63;;;;;;;;;;5024893;28;20132;-60
2023/04/11 01:54:38;;;;;;;5.67;4.53;;;;;;;;;;5023838;28;20025;-61
2023/04/11 01:57:03;;;;;;;6.23;4.53;;;;;;;;;;5022789;28;20304;-61
2023/04/11 01:59:28;;;;;;;5.70;4.67;;;;;;;;;;5022758;28;20303;-61
2023/04/11 02:01:54;;;;;;;5.30;4.55;;;;;;;;;;5023994;28;20375;-60
2023/04/11 02:04:19;;;;;;;6.35;5.10;;;;;;;;;;5022474;28;20034;-61
2023/04/11 02:06:44;;;;;;;5.75;4.40;;;;;;;;;;5021762;28;20188;-60
2023/04/11 02:09:10;;;;;;;6.10;4.87;;;;;;;;;;5023637;28;20053;-61
2023/04/11 02:11:35;;;;;;;4.77;4.27;;;;;;;;;;5024033;28;20436;-60
2023/04/11 02:14:01;;;;;;;5.70;4.53;;;;;;;;;;5009652;28;21466;-61
2023/04/11 02:16:28;;;;;;;5.13;4.47;;;;;;;;;;5021076;28;20276;-61
2023/04/11 02:18:53;;;;;;;5.68;4.65;;;;;;;;;;5021373;28;20048;-60
2023/04/11 02:21:19;;;;;;;5.27;4.63;;;;;;;;;;5023658;28;20033;-61
2023/04/11 02:23:44;;;;;;;5.63;4.72;;;;;;;;;;5022008;28;20320;-60
2023/04/11 02:26:10;;;;;;;5.50;4.40;;;;;;;;;;5018506;28;20416;-60
2023/04/11 02:28:35;;;;;;;5.87;4.60;;;;;;;;;;5009024;28;20532;-60
2023/04/11 02:31:01;;;;;;;5.88;4.47;;;;;;;;;;5026939;28;20470;-60
2023/04/11 02:33:26;;;;;;;5.25;4.28;;;;;;;;;;5004925;28;20037;-60
2023/04/11 02:35:52;;;;;;;5.30;4.40;;;;;;;;;;5022426;28;20033;-60
2023/04/11 02:38:17;;;;;;;4.78;4.20;;;;;;;;;;5020672;28;20111;-60
2023/04/11 02:40:42;;;;;;;5.40;4.90;;;;;;;;;;5014918;28;20471;-62
2023/04/11 02:43:07;;;;;;;5.37;4.10;;;;;;;;;;5018553;28;20743;-60
2023/04/11 02:45:32;;;;;;;5.40;4.37;;;;;;;;;;5022953;28;20412;-61
2023/04/11 02:47:58;;;;;;;4.83;3.97;;;;;;;;;;5025272;28;20457;-60
2023/04/11 02:50:25;;;;;;;5.83;4.80;;;;;;;;;;5030245;28;20295;-59
2023/04/11 02:52:50;;;;;;;5.40;4.65;;;;;;;;;;5012722;28;20384;-60
2023/04/11 02:55:15;;;;;;;5.30;4.30;;;;;;;;;;5023705;28;20139;-59
2023/04/11 02:57:41;;;;;;;6.03;4.93;;;;;;;;;;5011608;28;20552;-60
2023/04/11 03:00:07;;;;;;;5.05;4.15;;;;;;;;;;5022513;28;20971;-60
2023/04/11 03:02:33;;;;;;;6.18;4.50;;;;;;;;;;5007535;28;20061;-61
2023/04/11 03:05:02;;;;;;;4.72;3.90;;;;;;;;;;5009099;28;20214;-62
2023/04/11 03:07:27;;;;;;;6.45;4.50;;;;;;;;;;5007839;28;20060;-60
2023/04/11 03:09:53;;;;;;;4.53;3.87;;;;;;;;;;5015134;28;20068;-60
2023/04/11 03:12:18;;;;;;;4.90;4.30;;;;;;;;;;5007161;28;20391;-62
2023/04/11 03:14:44;;;;;;;5.95;3.92;;;;;;;;;;5009123;28;20124;-61
2023/04/11 03:17:09;;;;;;;4.72;4.00;;;;;;;;;;5009256;28;20069;-60
2023/04/11 03:19:34;;;;;;;4.47;3.90;;;;;;;;;;5009456;28;20053;-60
2023/04/11 03:22:00;;;;;;;4.93;4.20;;;;;;;;;;5007767;28;20300;-60
2023/04/11 03:24:25;;;;;;;5.45;4.18;;;;;;;;;;4987318;28;20029;-60
2023/04/11 03:26:50;;;;;;;4.53;4.10;;;;;;;;;;5024625;28;20042;-60
2023/04/11 03:29:16;;;;;;;4.83;3.87;;;;;;;;;;5011715;28;20045;-60
2023/04/11 03:31:41;;;;;;;4.93;4.10;;;;;;;;;;5005816;28;20936;-60
2023/04/11 03:34:06;;;;;;;4.43;3.73;;;;;;;;;;5004991;28;20057;-61
2023/04/11 03:36:31;;;;;;;5.47;4.17;;;;;;;;;;5011470;28;20291;-61
2023/04/11 03:38:57;;;;;;;4.30;3.70;;;;;;;;;;5016561;28;20042;-61
2023/04/11 03:41:22;;;;;;;4.57;3.70;;;;;;;;;;5019165;28;20128;-61
2023/04/11 03:43:47;;;;;;;4.90;3.95;;;;;;;;;;5015259;28;20303;-61
2023/04/11 03:46:12;;;;;;;4.63;3.90;;;;;;;;;;5015146;28;20153;-61
2023/04/11 03:48:37;;;;;;;4.40;3.73;;;;;;;;;;5014045;28;20480;-61
2023/04/11 03:51:03;;;;;;;4.90;3.80;;;;;;;;;;5015171;28;20365;-61
2023/04/11 03:53:28;;;;;;;5.05;3.88;;;;;;;;;;5018853;28;20292;-60
2023/04/11 03:55:53;;;;;;;4.07;3.67;;;;;;;;;;5018658;28;20513;-61
2023/04/11 03:58:20;;;;;;;4.20;3.65;;;;;;;;;;5021324;28;20442;-61
2023/04/11 04:00:45;;;;;;;4.25;3.55;;;;;;;;;;5025634;28;20037;-61
2023/04/11 04:03:12;;;;;;;3.87;3.47;;;;;;;;;;5022352;28;20302;-60
2023/04/11 04:05:37;;;;;;;4.43;3.88;;;;;;;;;;5025487;28;20327;-61
2023/04/11 04:08:03;;;;;;;4.47;3.63;;;;;;;;;;5028414;28;20110;-62
2023/04/11 04:10:28;;;;;;;4.05;3.53;;;;;;;;;;5025782;28;20029;-62
2023/04/11 04:12:53;;;;;;;4.23;3.70;;;;;;;;;;5024062;28;20073;-60
2023/04/11 04:15:18;;;;;;;3.90;3.45;;;;;;;;;;5018521;28;20297;-62
2023/04/11 04:17:44;;;;;;;4.10;3.50;;;;;;;;;;5011824;28;20555;-62
2023/04/11 04:20:09;;;;;;;4.23;3.80;;;;;;;;;;5024023;28;20597;-62
2023/04/11 04:22:35;;;;;;;4.13;3.53;;;;;;;;;;5010506;28;20289;-61
2023/04/11 04:25:00;;;;;;;4.55;3.88;;;;;;;;;;5007400;28;20423;-61
2023/04/11 04:27:26;;;;;;;3.97;3.50;;;;;;;;;;5024390;28;20136;-61
2023/04/11 04:29:51;;;;;;;4.10;3.40;;;;;;;;;;5025767;28;20307;-61
2023/04/11 04:32:21;;;;;;;4.75;3.92;;;;;;;;;;5025079;28;20292;-61
2023/04/11 04:34:48;;;;;;;;;;;;;;;;;;5016931;28;20045;-62
2023/04/11 04:37:20;;;;;;;5.43;3.70;;;;;;;;;;5021283;28;19921;-61
2023/04/11 04:39:49;;;;;;;4.13;3.33;;;;;;;;;;5019754;28;20115;-61
2023/04/11 04:42:14;;;;;;;4.30;3.30;;;;;;;;;;5022600;28;20096;-61
2023/04/11 04:44:40;;;;;;;4.05;3.50;;;;;;;;;;5017894;28;20284;-62
2023/04/11 04:47:05;;;;;;;3.50;3.20;;;;;;;;;;5023271;28;20442;-62
2023/04/11 04:49:30;;;;;;;3.77;3.37;;;;;;;;;;5004284;28;20575;-61
2023/04/11 04:51:55;;;;;;;3.93;3.53;;;;;;;;;;5010269;28;20308;-66
2023/04/11 04:54:22;;;;;;;4.20;3.80;;;;;;;;;;5023881;28;20379;-63
2023/04/11 04:56:48;;;;;;;4.40;3.90;;;;;;;;;;5013349;28;20713;-61
2023/04/11 04:59:15;;;;;;;4.60;4.10;;;;;;;;;;5022862;28;20125;-60
2023/04/11 05:01:40;;;;;;;4.40;4.00;;;;;;;;;;5007267;28;20580;-61
2023/04/11 05:04:05;;;;;;;4.28;3.53;;;;;;;;;;5018564;28;20048;-60
2023/04/11 05:06:30;;;;;;;3.97;3.57;;;;;;;;;;5017773;28;20041;-62
2023/04/11 05:08:57;;;;;;;4.17;3.67;;;;;;;;;;5022210;28;20118;-60
2023/04/11 05:11:22;;;;;;;4.82;3.65;;;;;;;;;;5000132;28;20807;-62
2023/04/11 05:13:47;;;;;;;3.73;3.40;;;;;;;;;;5021134;28;20033;-60
2023/04/11 05:16:13;;;;;;;4.75;3.70;;;;;;;;;;5023143;28;20795;-60
2023/04/11 05:18:38;;;;;;;4.33;3.53;;;;;;;;;;5022268;28;20081;-60
2023/04/11 05:21:04;;;;;;;4.13;3.50;;;;;;;;;;5012458;28;20088;-60
2023/04/11 05:23:29;;;;;;;5.60;3.90;;;;;;;;;;5022949;28;20288;-60
2023/04/11 05:25:54;;;;;;;4.53;3.78;;;;;;;;;;5023944;28;20033;-60
2023/04/11 05:28:19;;;;;;;3.80;3.30;;;;;;;;;;5022305;28;20468;-62
2023/04/11 05:30:45;;;;;;;5.80;3.85;;;;;;;;;;5016969;28;20294;-64
2023/04/11 05:33:11;;;;;;;4.28;3.60;;;;;;;;;;5027601;28;20040;-61
2023/04/11 05:35:36;;;;;;;3.45;3.13;;;;;;;;;;5022202;28;20057;-62
2023/04/11 05:38:02;;;;;;;5.43;3.70;;;;;;;;;;5023254;28;20037;-60
2023/04/11 05:40:27;;;;;;;4.63;3.90;;;;;;;;;;5022428;28;20295;-61
2023/04/11 05:42:52;;;;;;;3.80;3.23;;;;;;;;;;5019959;28;20438;-61
2023/04/11 05:45:18;;;;;;;4.43;3.70;;;;;;;;;;5033196;28;20307;-61
2023/04/11 05:47:43;;;;;;;4.03;3.58;;;;;;;;;;5018607;28;20064;-61
2023/04/11 05:50:09;;;;;;;4.83;3.10;;;;;;;;;;5016241;28;20045;-62
2023/04/11 05:52:34;;;;;;;4.75;3.05;;;;;;;;;;5021062;28;20105;-62
2023/04/11 05:55:00;;;;;;;4.13;3.40;;;;;;;;;;5018240;28;20040;-61
2023/04/11 05:57:25;;;;;;;4.22;3.50;;;;;;;;;;5017074;28;20057;-62
2023/04/11 05:59:51;;;;;;;3.70;3.23;;;;;;;;;;5010951;28;20613;-61
2023/04/11 06:02:16;;;;;;;5.47;3.47;;;;;;;;;;5012302;28;20285;-63
2023/04/11 06:04:42;;;;;;;4.17;3.50;;;;;;;;;;5012675;28;20038;-62
2023/04/11 06:07:07;;;;;;;4.10;3.33;;;;;;;;;;5021351;28;20029;-61
2023/04/11 06:09:32;;;;;;;4.88;3.72;;;;;;;;;;5019796;28;20061;-62
2023/04/11 06:11:57;;;;;;;4.57;3.43;;;;;;;;;;5015908;28;20190;-63
2023/04/11 06:14:23;;;;;;;4.00;3.20;;;;;;;;;;5016694;28;20045;-62
2023/04/11 06:16:48;;;;;;;4.20;3.30;;;;;;;;;;5022088;28;20307;-62
2023/04/11 06:19:13;;;;;;;4.87;3.40;;;;;;;;;;5020497;28;20283;-63
2023/04/11 06:21:38;;;;;;;4.63;3.27;;;;;;;;;;5017498;28;20284;-62
2023/04/11 06:24:06;;;;;;;4.87;3.57;;;;;;;;;;5013968;28;20817;-61
2023/04/11 06:26:31;;;;;;;5.15;3.58;;;;;;;;;;5012750;28;20030;-63
2023/04/11 06:28:56;;;;;;;4.20;3.37;;;;;;;;;;5018478;28;20048;-62
2023/04/11 06:31:22;;;;;;;4.33;3.43;;;;;;;;;;5013048;28;20293;-63
2023/04/11 06:33:47;;;;;;;4.90;3.40;;;;;;;;;;5019107;28;20099;-61
2023/04/11 06:36:12;;;;;;;4.47;3.57;;;;;;;;;;5018609;28;20833;-62
2023/04/11 06:38:39;;;;;;;4.10;3.70;;;;;;;;;;5020077;28;20740;-63
2023/04/11 06:41:04;;;;;;;4.70;3.67;;;;;;;;;;5018608;28;20296;-62
2023/04/11 06:43:31;;;;;;;3.97;3.50;;;;;;;;;;5017836;28;20475;-62
2023/04/11 06:45:56;;;;;;;4.70;3.58;;;;;;;;;;5013846;28;20063;-67
2023/04/11 06:48:21;;;;;;;4.20;3.40;;;;;;;;;;5029241;28;20494;-63
2023/04/11 06:50:47;;;;;;;3.95;3.47;;;;;;;;;;5015296;28;20370;-62
2023/04/11 06:53:12;;;;;;;6.30;3.80;;;;;;;;;;5008469;28;20141;-61
2023/04/11 06:55:37;;;;;;;4.60;3.37;;;;;;;;;;5014777;28;20060;-62
2023/04/11 06:58:02;;;;;;;4.57;3.63;;;;;;;;;;5015385;28;20053;-62
2023/04/11 07:00:28;;;;;;;4.45;3.58;;;;;;;;;;5009184;28;20341;-61
2023/04/11 07:02:53;;;;;;;4.20;3.60;;;;;;;;;;5017975;28;20049;-59
2023/04/11 07:05:18;;;;;;;3.53;3.13;;;;;;;;;;5015512;28;20057;-62
2023/04/11 07:07:43;;;;;;;3.93;3.30;;;;;;;;;;5016293;28;20851;-61
2023/04/11 07:10:09;;;;;;;4.77;3.70;;;;;;;;;;5015508;28;20677;-63
2023/04/11 07:12:34;;;;;;;4.65;3.50;;;;;;;;;;5013986;28;20390;-63
2023/04/11 07:15:00;;;;;;;4.13;3.30;;;;;;;;;;5013432;28;20033;-61
2023/04/11 07:17:25;;;;;;;4.13;3.47;;;;;;;;;;5015327;28;20285;-63
2023/04/11 07:19:50;;;;;;;4.87;3.67;;;;;;;;;;5012244;28;20509;-62
2023/04/11 07:22:15;;;;;;;4.13;3.50;;;;;;;;;;5012808;28;20291;-62
2023/04/11 07:24:42;;;;;;;3.73;3.20;;;;;;;;;;5013623;28;20496;-62
2023/04/11 07:27:07;;;;;;;4.28;3.55;;;;;;;;;;5015144;28;20362;-63
2023/04/11 07:29:32;;;;;;;4.32;3.38;;;;;;;;;;5002754;28;20042;-63
2023/04/11 07:31:58;;;;;;;4.57;3.80;;;;;;;;;;5016110;28;20513;-62
2023/04/11 07:34:23;;;;;;;4.33;3.57;;;;;;;;;;5006835;28;20289;-62
2023/04/11 07:36:48;;;;;;;4.73;3.70;;;;;;;;;;5005099;28;20289;-62
2023/04/11 07:39:14;;;;;;;3.85;3.45;;;;;;;;;;5021117;28;20334;-62
2023/04/11 07:41:40;;;;;;;4.25;3.38;;;;;;;;;;5021910;28;20041;-60
2023/04/11 07:44:08;;;;;;;3.70;3.10;;;;;;;;;;5023296;28;20147;-63
2023/04/11 07:46:33;;;;;;;4.38;3.53;;;;;;;;;;5000483;28;20825;-62
2023/04/11 07:48:59;;;;;;;4.18;3.38;;;;;;;;;;5010869;28;20036;-62
2023/04/11 07:51:26;;;;;;;4.07;3.55;;;;;;;;;;5024201;28;20040;-62
2023/04/11 07:53:51;;;;;;;4.40;3.80;;;;;;;;;;5021236;28;20111;-63
2023/04/11 07:56:16;;;;;;;4.30;3.53;;;;;;;;;;5021761;28;20631;-62
2023/04/11 07:58:41;;;;;;;4.67;3.50;;;;;;;;;;5014327;28;20493;-63
2023/04/11 08:01:17;;;;;;;4.05;3.40;;;;;;;;;;5014269;28;20093;-62
2023/04/11 08:03:42;;;;;;;4.43;3.50;;;;;;;;;;5014695;28;20028;-63
2023/04/11 08:06:08;;;;;;;4.47;3.80;;;;;;;;;;5006284;28;20022;-62
2023/04/11 08:08:33;;;;;;;5.18;3.80;;;;;;;;;;5012610;28;20033;-62
2023/04/11 08:10:58;;;;;;;4.33;3.70;;;;;;;;;;5016505;28;20032;-61
2023/04/11 08:13:24;;;;;;;4.20;3.63;;;;;;;;;;5010632;28;20021;-63
2023/04/11 08:15:49;;;;;;;4.93;3.97;;;;;;;;;;5012467;28;20018;-64
2023/04/11 08:18:15;;;;;;;4.00;3.60;;;;;;;;;;5030046;28;20626;-62
2023/04/11 08:20:40;;;;;;;4.95;3.88;;;;;;;;;;5020643;28;20276;-62
2023/04/11 08:23:07;;;;;;;6.32;3.90;;;;;;;;;;5004705;28;20030;-63
2023/04/11 08:25:32;;;;;;;4.85;3.70;;;;;;;;;;5008732;28;20045;-62
2023/04/11 08:27:58;;;;;;;3.88;3.45;;;;;;;;;;5020508;28;20048;-61
2023/04/11 08:30:25;;;;;;;4.43;3.77;;;;;;;;;;5020604;28;20052;-64
2023/04/11 08:32:50;;;;;;;4.95;3.75;;;;;;;;;;5020047;28;20324;-62
2023/04/11 08:35:15;;;;;;;4.80;3.60;;;;;;;;;;5033027;28;20863;-62
2023/04/11 08:37:40;;;;;;;4.30;3.80;;;;;;;;;;5009295;28;20300;-62
2023/04/11 08:40:06;;;;;;;5.30;3.90;;;;;;;;;;5010258;28;20037;-62
2023/04/11 08:42:31;;;;;;;5.32;3.88;;;;;;;;;;5007600;28;20061;-62
2023/04/11 08:45:07;;;;;;;3.93;3.40;;;;;;;;;;5010074;28;20038;-62
2023/04/11 08:47:32;;;;;;;4.85;3.72;;;;;;;;;;5019073;28;20288;-62
2023/04/11 08:49:57;;;;;;;4.83;3.80;;;;;;;;;;5022021;28;20041;-61
2023/04/11 08:52:23;;;;;;;4.10;3.43;;;;;;;;;;5019661;28;20345;-61
2023/04/11 08:54:48;;;;;;;4.37;3.67;;;;;;;;;;5019742;28;20084;-62
2023/04/11 08:57:26;;;;;;;4.40;3.70;;;;;;;;;;5004418;28;20111;-63
2023/04/11 08:59:55;;;;;;;5.57;3.58;;;;;;;;;;5009744;28;20667;-62
2023/04/11 09:02:20;;;;;;;4.53;3.50;;;;;;;;;;5010699;28;20076;-63
2023/04/11 09:04:46;;;;;;;4.53;3.53;;;;;;;;;;5010677;28;20617;-63
2023/04/11 09:07:11;;;;;;;4.80;3.72;;;;;;;;;;5008465;28;20289;-63
2023/04/11 09:09:38;;;;;;;5.78;3.60;;;;;;;;;;5014233;28;20041;-65
2023/04/11 09:12:03;;;;;;;5.25;3.60;;;;;;;;;;5015900;28;20068;-63
2023/04/11 09:14:28;;;;;;;4.53;3.53;;;;;;;;;;5021326;28;20124;-63
2023/04/11 09:16:56;;;;;;;4.35;3.78;;;;;;;;;;5011396;28;20115;-66
2023/04/11 09:19:24;;;;;;;4.80;3.85;;;;;;;;;;5030870;28;20468;-65
2023/04/11 09:21:50;;;;;;;5.30;4.00;;;;;;;;;;5015221;28;20047;-62
2023/04/11 09:24:15;;;;;;;4.83;3.73;;;;;;;;;;5011522;28;20034;-62
2023/04/11 09:26:40;;;;;;;3.95;3.40;;;;;;;;;;5002736;28;20307;-61
2023/04/11 09:29:05;;;;;;;4.83;3.83;;;;;;;;;;5004562;28;20144;-62
2023/04/11 09:31:43;;;;;;;4.30;3.83;;;;;;;;;;5014392;28;20377;-62
2023/04/11 09:34:09;;;;;;;5.18;3.80;;;;;;;;;;5011106;28;20041;-61
2023/04/11 09:36:34;;;;;;;4.90;3.60;;;;;;;;;;5034813;28;20046;-62
2023/04/11 09:39:13;;;;;;;5.73;3.87;;;;;;;;;;5021030;28;20036;-61
2023/04/11 09:41:39;;;;;;;4.45;3.70;;;;;;;;;;5018303;28;20280;-63
2023/04/11 09:44:04;;;;;;;5.97;3.50;;;;;;;;;;5009886;28;20069;-62
2023/04/11 09:46:29;;;;;;;5.05;3.47;;;;;;;;;;5015268;28;20049;-62
2023/04/11 09:48:55;;;;;;;4.73;3.70;;;;;;;;;;5014582;28;20076;-62
2023/04/11 09:51:20;;;;;;;5.55;4.13;;;;;;;;;;5026610;28;20060;-63
2023/04/11 09:53:45;;;;;;;5.53;4.13;;;;;;;;;;5025070;28;20022;-62
2023/04/11 09:56:11;;;;;;;4.38;3.40;;;;;;;;;;5015186;28;20096;-63
2023/04/11 09:58:37;;;;;;;3.85;3.45;;;;;;;;;;5027974;28;20088;-62
2023/04/11 10:01:02;;;;;;;4.57;3.83;;;;;;;;;;5020393;28;20036;-63
2023/04/11 10:03:34;;;;;;;4.63;3.78;;;;;;;;;;5005360;28;20046;-65
2023/04/11 10:05:59;;;;;;;4.75;3.80;;;;;;;;;;5016115;28;20040;-61
2023/04/11 10:08:32;;;;;;;4.80;3.58;;;;;;;;;;5005484;28;20509;-65
2023/04/11 10:11:00;;;;;;;6.00;3.70;;;;;;;;;;5008921;28;20030;-66
2023/04/11 10:13:44;;;;;;;5.00;3.85;;;;;;;;;;5033870;28;20860;-65
2023/04/11 10:16:11;;;;;;;5.35;3.65;;;;;;;;;;5020062;28;20072;-64
2023/04/11 10:18:36;;;;;;;4.22;3.45;;;;;;;;;;5024388;28;20051;-64
2023/04/11 10:21:02;;;;;;;4.10;3.60;;;;;;;;;;5012522;28;20021;-65
2023/04/11 10:23:28;;;;;;;4.07;3.50;;;;;;;;;;5011627;28;20038;-65
2023/04/11 10:25:54;;;;;;;4.10;3.70;;;;;;;;;;5021889;28;20129;-65
2023/04/11 10:28:36;;;;;;;5.72;3.80;;;;;;;;;;5023871;28;20231;-63
2023/04/11 10:31:06;;;;;;;3.90;3.28;;;;;;;;;;5012717;28;20068;-63
2023/04/11 10:33:32;;;;;;;5.00;3.55;;;;;;;;;;5007378;28;20781;-63
2023/04/11 10:35:57;;;;;;;4.65;3.50;;;;;;;;;;5012712;28;20117;-64
2023/04/11 10:38:47;;;;;;;4.35;3.95;;;;;;;;;;5021211;28;20028;-65
2023/04/11 10:41:18;;;;;;;4.28;3.17;;;;;;;;;;5023874;28;20291;-63
2023/04/11 10:43:44;;;;;;;5.05;4.00;;;;;;;;;;5022994;28;20037;-64
2023/04/11 10:46:22;;;;;;;4.97;3.63;;;;;;;;;;5013254;28;21050;-63
2023/04/11 10:48:57;;;;;;;4.95;3.63;;;;;;;;;;5023376;28;20065;-62
2023/04/11 10:51:24;;;;;;;4.68;3.58;;;;;;;;;;5026303;28;20517;-63
2023/04/11 10:53:51;;;;;;;5.07;3.58;;;;;;;;;;5021342;28;20127;-63
2023/04/11 10:56:36;;;;;;;4.03;3.55;;;;;;;;;;5013524;28;20046;-62
2023/04/11 10:59:01;;;;;;;5.82;3.53;;;;;;;;;;5021365;28;20207;-63
2023/04/11 11:01:26;;;;;;;4.40;3.70;;;;;;;;;;5019303;28;20501;-64
2023/04/11 11:03:52;;;;;;;5.07;3.87;;;;;;;;;;5010312;28;20288;-63
2023/04/11 11:06:18;;;;;;;4.10;3.33;;;;;;;;;;5003796;28;20280;-63
2023/04/11 11:08:45;;;;;;;4.85;3.63;;;;;;;;;;5003669;28;20264;-63
2023/04/11 11:11:10;;;;;;;4.68;3.53;;;;;;;;;;5022212;28;20037;-63
2023/04/11 11:13:42;;;;;;;3.87;3.07;;;;;;;;;;5011434;28;20048;-62
2023/04/11 11:16:08;;;;;;;5.05;3.70;;;;;;;;;;5030987;28;20331;-62
2023/04/11 11:18:33;;;;;;;5.55;3.63;;;;;;;;;;5004168;28;20057;-62
2023/04/11 11:20:58;;;;;;;4.82;3.50;;;;;;;;;;5020781;28;20044;-63
2023/04/11 11:23:24;;;;;;;4.27;3.40;;;;;;;;;;5008599;28;20519;-62
2023/04/11 11:25:53;;;;;;;4.55;3.70;;;;;;;;;;5020136;28;20397;-64
2023/04/11 11:28:18;;;;;;;4.25;3.50;;;;;;;;;;5009844;28;20046;-61
2023/04/11 11:30:52;;;;;;;4.30;3.67;;;;;;;;;;5021350;28;20025;-62
2023/04/11 11:33:18;;;;;;;4.15;3.60;;;;;;;;;;5003681;28;20299;-63
2023/04/11 11:35:54;;;;;;;4.93;3.83;;;;;;;;;;4998085;28;20030;-64
2023/04/11 11:38:20;;;;;;;5.07;3.70;;;;;;;;;;5021450;28;20655;-63
2023/04/11 11:40:46;;;;;;;6.05;3.50;;;;;;;;;;5013815;28;20132;-62
2023/04/11 11:43:11;;;;;;;3.72;3.30;;;;;;;;;;5018625;28;20029;-62
2023/04/11 11:45:36;;;;;;;4.47;3.70;;;;;;;;;;5017752;28;20472;-61
2023/04/11 11:48:02;;;;;;;4.50;3.43;;;;;;;;;;5017712;28;20029;-61
2023/04/11 11:50:28;;;;;;;4.70;3.80;;;;;;;;;;5016545;28;20277;-62
2023/04/11 11:52:53;;;;;;;4.00;3.33;;;;;;;;;;5020136;28;20758;-61
2023/04/11 11:55:18;;;;;;;3.67;3.08;;;;;;;;;;5011826;28;20037;-62
2023/04/11 11:57:47;;;;;;;4.60;3.50;;;;;;;;;;5018162;28;20057;-64
2023/04/11 12:00:12;;;;;;;4.50;3.20;;;;;;;;;;5013943;28;20065;-62
2023/04/11 12:02:38;;;;;;;4.65;3.60;;;;;;;;;;5015184;28;20497;-61
2023/04/11 12:05:04;;;;;;;4.13;3.33;;;;;;;;;;5024207;28;20169;-62
2023/04/11 12:07:31;;;;;;;4.97;3.65;;;;;;;;;;5022925;28;20076;-63
2023/04/11 12:10:07;;;;;;;4.43;3.63;;;;;;;;;;5019009;28;20063;-61
2023/04/11 12:12:42;;;;;;;4.05;3.20;;;;;;;;;;5021644;28;20111;-62
2023/04/11 12:15:11;;;;;;;4.00;3.50;;;;;;;;;;5019008;28;20210;-62
2023/04/11 12:17:36;;;;;;;4.13;3.15;;;;;;;;;;5018318;28;20087;-63
2023/04/11 12:20:05;;;;;;;4.07;3.38;;;;;;;;;;5012669;28;20030;-62
2023/04/11 12:22:30;;;;;;;4.68;3.80;;;;;;;;;;5020298;28;20383;-62
2023/04/11 12:25:04;;;;;;;4.55;3.63;;;;;;;;;;5013574;28;20044;-62
2023/04/11 12:27:31;;;;;;;4.00;3.40;;;;;;;;;;5014805;28;20615;-61
2023/04/11 12:29:57;;;;;;;3.88;3.35;;;;;;;;;;5011337;28;20136;-62
2023/04/11 12:32:23;;;;;;;3.63;3.27;;;;;;;;;;5021873;28;20033;-65
2023/04/11 12:34:48;;;;;;;3.90;3.50;;;;;;;;;;5019357;28;20302;-63
2023/04/11 12:37:13;;;;;;;4.00;3.37;;;;;;;;;;5021203;28;20033;-62
2023/04/11 12:39:38;;;;;;;4.20;3.40;;;;;;;;;;5020803;28;20308;-63
2023/04/11 12:42:03;;;;;;;4.40;3.13;;;;;;;;;;5016304;28;20041;-61
2023/04/11 12:44:29;;;;;;;5.13;3.50;;;;;;;;;;5022642;28;20032;-60
2023/04/11 12:46:54;;;;;;;4.72;3.60;;;;;;;;;;5016954;28;20789;-61
2023/04/11 12:49:19;;;;;;;4.07;3.42;;;;;;;;;;5036839;28;20038;-62
2023/04/11 12:51:45;;;;;;;4.10;3.20;;;;;;;;;;5014939;28;20395;-62
2023/04/11 12:54:10;;;;;;;5.30;3.47;;;;;;;;;;5019146;28;20045;-69
2023/04/11 12:56:35;;;;;;;4.60;3.80;;;;;;;;;;5015592;28;20124;-61
2023/04/11 12:59:00;;;;;;;4.67;3.37;;;;;;;;;;5011198;28;20884;-62
2023/04/11 13:01:26;;;;;;;6.07;3.80;;;;;;;;;;5014537;28;20033;-61
2023/04/11 13:03:51;;;;;;;4.88;3.50;;;;;;;;;;5025212;28;20034;-61
2023/04/11 13:06:17;;;;;;;5.93;4.30;;;;;;;;;;5018160;28;20037;-62
2023/04/11 13:08:43;;;;;;;4.80;4.05;;;;;;;;;;5020227;28;20472;-61
2023/04/11 13:11:08;;;;;;;4.43;3.60;;;;;;;;;;5020864;28;20256;-62
2023/04/11 13:13:33;;;;;;;5.60;4.37;;;;;;;;;;5023359;28;20053;-61
2023/04/11 13:15:58;;;;;;;4.77;4.10;;;;;;;;;;5001831;28;20281;-61
2023/04/11 13:18:24;;;;;;;5.60;4.80;;;;;;;;;;5015923;28;20680;-62
2023/04/11 13:20:49;;;;;;;5.45;4.60;;;;;;;;;;5013721;28;20060;-62
2023/04/11 13:23:14;;;;;;;5.97;5.13;;;;;;;;;;5021473;28;20045;-61
2023/04/11 13:25:39;;;;;;;5.93;5.15;;;;;;;;;;5022982;28;20059;-61
2023/04/11 13:28:05;;;;;;;6.00;5.10;;;;;;;;;;5017020;28;20497;-62
2023/04/11 13:30:30;;;;;;;6.47;4.90;;;;;;;;;;5012119;28;20304;-62
2023/04/11 13:32:55;;;;;;;6.03;5.18;;;;;;;;;;5020609;28;20022;-62
2023/04/11 13:35:21;;;;;;;6.30;5.43;;;;;;;;;;5019187;28;20057;-62
2023/04/11 13:37:47;;;;;;;6.10;4.97;;;;;;;;;;5020057;28;20288;-62
2023/04/11 13:40:13;;;;;;;7.20;5.55;;;;;;;;;;5016942;28;20041;-61
2023/04/11 13:42:39;;;;;;;7.05;5.32;;;;;;;;;;5019885;28;20038;-62
2023/04/11 13:45:04;;;;;;;5.87;5.20;;;;;;;;;;5007839;28;20777;-63
2023/04/11 13:47:30;;;;;;;6.63;5.55;;;;;;;;;;5017556;28;20280;-61
2023/04/11 13:49:55;;;;;;;5.95;5.25;;;;;;;;;;5016439;28;20140;-62
2023/04/11 13:52:21;;;;;;;7.10;5.43;;;;;;;;;;5023497;28;20045;-61
2023/04/11 13:54:46;;;;;;;5.97;5.35;;;;;;;;;;5023999;28;20102;-63
2023/04/11 13:57:12;;;;;;;6.40;5.43;;;;;;;;;;5008408;28;20521;-61
2023/04/11 13:59:37;;;;;;;7.03;6.00;;;;;;;;;;5010251;28;20287;-61
2023/04/11 14:02:02;;;;;;;6.27;5.53;;;;;;;;;;5014655;28;20304;-62
2023/04/11 14:04:27;;;;;;;6.80;6.10;;;;;;;;;;5004265;28;20630;-61
2023/04/11 14:06:54;;;;;;;7.07;5.93;;;;;;;;;;5012723;28;20484;-60
2023/04/11 14:09:19;;;;;;;7.32;6.25;;;;;;;;;;5006672;28;20289;-60
2023/04/11 14:11:45;;;;;;;10.02;6.65;;;;;;;;;;5000296;28;20060;-62
2023/04/11 14:14:10;;;;;;;7.87;5.50;;;;;;;;;;5019879;28;20046;-61
2023/04/11 14:16:35;;;;;;;7.47;6.37;;;;;;;;;;5004488;28;20062;-62
2023/04/11 14:19:01;;;;;;;8.07;6.20;;;;;;;;;;5007300;28;20022;-62
2023/04/11 14:21:26;;;;;;;7.20;5.50;;;;;;;;;;5022498;28;20053;-62
2023/04/11 14:23:52;;;;;;;7.30;6.40;;;;;;;;;;5022924;28;20029;-62
2023/04/11 14:26:17;;;;;;;6.57;5.60;;;;;;;;;;5023403;28;20517;-63
2023/04/11 14:28:42;;;;;;;6.22;5.60;;;;;;;;;;5023822;28;20312;-61
2023/04/11 14:31:08;;;;;;;6.50;5.43;;;;;;;;;;5022040;28;20428;-63
2023/04/11 14:33:33;;;;;;;6.50;5.53;;;;;;;;;;5021903;28;20284;-63
2023/04/11 14:35:59;;;;;;;7.63;5.53;;;;;;;;;;5024406;28;20030;-60